Time;durP1;ratioP1;P1;durP2;ratioP2;P2;SDS_P1;SDS_P2;PMS_P1;PMS_P2;Temp;Humidity;BMP_temperature;BMP_pressure;BME280_temperature;BME280_humidity;BME280_pressure;Samples;Min_cycle;Max_cycle;Signal;HPM_P1;HPM_P2
2023/12/29 00:01:31;;;;;;;3.35;2.67;;;10.10;99.90;;;;;;4957947;28;20038;-75
2023/12/29 00:03:57;;;;;;;6.50;2.70;;;10.20;99.90;;;;;;4958015;28;20544;-74
2023/12/29 00:06:23;;;;;;;4.05;2.90;;;10.10;99.90;;;;;;4974829;28;20031;-75
2023/12/29 00:08:48;;;;;;;4.82;2.78;;;10.10;99.90;;;;;;4974075;28;20109;-74
2023/12/29 00:11:20;;;;;;;3.83;2.75;;;10.10;99.90;;;;;;4973874;28;20070;-75
2023/12/29 00:13:46;;;;;;;;;;;10.00;99.90;;;;;;4958755;28;20042;-74
2023/12/29 00:16:12;;;;;;;4.53;2.78;;;10.00;99.90;;;;;;4974911;28;19910;-75
2023/12/29 00:18:38;;;;;;;6.00;2.60;;;10.00;99.90;;;;;;4958062;28;20034;-74
2023/12/29 00:21:04;;;;;;;4.68;2.65;;;10.00;99.90;;;;;;4957949;28;20023;-75
2023/12/29 00:23:29;;;;;;;5.22;3.13;;;10.00;99.90;;;;;;4974791;28;20027;-75
2023/12/29 00:25:55;;;;;;;5.15;2.90;;;10.00;99.90;;;;;;4974044;28;20033;-75
2023/12/29 00:28:21;;;;;;;5.95;3.00;;;9.90;99.90;;;;;;4974513;28;20484;-75
2023/12/29 00:30:46;;;;;;;4.70;2.80;;;10.00;99.90;;;;;;4975228;28;20105;-75
2023/12/29 00:33:12;;;;;;;5.40;3.00;;;9.90;99.90;;;;;;4957442;28;20027;-74
2023/12/29 00:35:39;;;;;;;4.95;2.65;;;9.90;99.90;;;;;;4974674;28;20023;-74
2023/12/29 00:38:05;;;;;;;5.10;2.85;;;9.80;99.90;;;;;;4957562;28;20121;-75
2023/12/29 00:40:31;;;;;;;4.35;2.72;;;9.80;99.90;;;;;;4973731;28;20030;-75
2023/12/29 00:42:56;;;;;;;4.82;2.83;;;9.80;99.90;;;;;;4957658;28;20038;-74
2023/12/29 00:45:22;;;;;;;4.65;3.03;;;9.80;99.90;;;;;;4973164;28;20380;-74
2023/12/29 00:47:48;;;;;;;3.90;2.80;;;9.80;99.90;;;;;;4974849;28;20037;-75
2023/12/29 00:50:14;;;;;;;5.80;2.60;;;9.80;99.90;;;;;;4957043;28;20473;-74
2023/12/29 00:52:40;;;;;;;5.45;3.10;;;9.80;99.90;;;;;;4974854;28;20435;-74
2023/12/29 00:55:06;;;;;;;6.20;2.97;;;9.80;99.90;;;;;;4957442;28;20122;-74
2023/12/29 00:57:31;;;;;;;5.60;4.05;;;9.80;99.90;;;;;;4974107;28;20495;-75
2023/12/29 00:59:57;;;;;;;5.00;2.55;;;9.70;99.90;;;;;;4957369;28;20026;-74
2023/12/29 01:02:22;;;;;;;5.07;3.05;;;9.70;99.90;;;;;;4974379;28;20372;-75
2023/12/29 01:04:48;;;;;;;4.60;3.13;;;9.80;99.90;;;;;;4974550;28;20034;-75
2023/12/29 01:07:14;;;;;;;8.20;3.25;;;9.70;99.90;;;;;;4956891;28;20085;-75
2023/12/29 01:09:42;;;;;;;6.60;3.22;;;9.70;99.90;;;;;;4973440;28;20037;-75
2023/12/29 01:12:08;;;;;;;6.15;2.90;;;9.70;99.90;;;;;;4957240;28;20073;-74
2023/12/29 01:14:34;;;;;;;4.60;3.13;;;9.60;99.90;;;;;;4972780;28;20031;-75
2023/12/29 01:16:59;;;;;;;6.05;3.35;;;9.60;99.90;;;;;;4973951;28;20458;-74
2023/12/29 01:19:25;;;;;;;7.32;3.38;;;9.60;99.90;;;;;;4973929;28;20027;-75
2023/12/29 01:21:50;;;;;;;5.28;3.33;;;9.60;99.90;;;;;;4974579;28;20114;-75
2023/12/29 01:24:16;;;;;;;4.68;3.05;;;9.60;99.90;;;;;;4956445;28;20027;-75
2023/12/29 01:26:41;;;;;;;4.75;3.20;;;9.60;99.90;;;;;;4973043;28;20151;-75
2023/12/29 01:29:07;;;;;;;6.90;3.50;;;9.60;99.90;;;;;;4956790;28;20388;-75
2023/12/29 01:31:33;;;;;;;4.38;3.20;;;9.50;99.90;;;;;;4956467;28;20078;-75
2023/12/29 01:33:59;;;;;;;6.05;3.63;;;9.50;99.90;;;;;;4956802;28;20023;-74
2023/12/29 01:36:25;;;;;;;5.65;3.65;;;9.50;99.90;;;;;;4956130;28;20054;-75
2023/12/29 01:38:50;;;;;;;5.45;3.00;;;9.50;99.90;;;;;;4974045;28;20523;-75
2023/12/29 01:41:19;;;;;;;4.97;3.40;;;9.50;99.90;;;;;;4973261;28;20030;-75
2023/12/29 01:43:59;;;;;;;6.07;3.50;;;9.50;99.90;;;;;;4973761;28;20034;-75
2023/12/29 01:46:27;;;;;;;6.15;3.38;;;9.50;99.90;;;;;;4955996;28;20142;-75
2023/12/29 01:48:53;;;;;;;6.43;3.40;;;9.50;99.90;;;;;;4972974;28;20634;-74
2023/12/29 01:51:23;;;;;;;5.43;3.40;;;9.50;99.90;;;;;;4957961;28;20134;-75
2023/12/29 01:53:49;;;;;;;5.85;3.50;;;9.50;99.90;;;;;;4960855;28;20035;-74
2023/12/29 01:56:15;;;;;;;7.07;3.50;;;9.50;99.90;;;;;;4977416;28;20492;-76
2023/12/29 01:58:41;;;;;;;6.10;3.15;;;9.60;99.90;;;;;;4977787;28;20042;-75
2023/12/29 02:01:07;;;;;;;4.88;3.70;;;9.60;99.90;;;;;;4977951;28;20488;-74
2023/12/29 02:03:34;;;;;;;5.20;3.22;;;9.50;99.90;;;;;;4977449;28;20054;-75
2023/12/29 02:05:59;;;;;;;6.38;3.28;;;9.50;99.90;;;;;;4977821;28;20037;-74
2023/12/29 02:08:25;;;;;;;4.25;3.17;;;9.50;99.90;;;;;;4960005;28;20026;-75
2023/12/29 02:10:51;;;;;;;4.63;3.15;;;9.50;99.90;;;;;;4977848;28;20473;-74
2023/12/29 02:13:17;;;;;;;6.88;3.20;;;9.50;99.90;;;;;;4976074;28;20050;-75
2023/12/29 02:15:42;;;;;;;5.72;3.35;;;9.50;99.90;;;;;;4977587;28;20113;-74
2023/12/29 02:18:14;;;;;;;6.57;3.45;;;9.40;99.90;;;;;;4976382;28;20360;-74
2023/12/29 02:20:40;;;;;;;;;;;9.50;99.90;;;;;;4976476;28;20027;-74
2023/12/29 02:23:06;;;;;;;4.22;3.10;;;9.40;99.90;;;;;;4977653;28;19912;-74
2023/12/29 02:25:32;;;;;;;5.93;3.50;;;9.50;99.90;;;;;;4977019;28;20073;-74
2023/12/29 02:28:25;;;;;;;6.32;3.15;;;9.50;99.90;;;;;;4977529;28;20111;-74
2023/12/29 02:31:03;;;;;;;5.30;3.10;;;9.40;99.90;;;;;;4956965;28;20039;-75
2023/12/29 02:33:33;;;;;;;4.18;2.88;;;9.40;99.90;;;;;;4959697;28;20058;-75
2023/12/29 02:36:00;;;;;;;4.40;3.00;;;9.50;99.90;;;;;;4977341;28;20046;-75
2023/12/29 02:38:29;;;;;;;3.10;2.42;;;9.40;99.90;;;;;;4958918;28;20522;-74
2023/12/29 02:40:56;;;;;;;5.07;3.03;;;9.40;99.90;;;;;;4977300;28;20046;-75
2023/12/29 02:43:21;;;;;;;4.35;2.67;;;9.50;99.90;;;;;;4975433;28;20027;-75
2023/12/29 02:45:47;;;;;;;4.72;2.75;;;9.50;99.90;;;;;;4976845;28;20468;-75
2023/12/29 02:48:12;;;;;;;3.40;2.28;;;9.40;99.90;;;;;;4975833;28;20026;-75
2023/12/29 02:50:38;;;;;;;4.70;2.50;;;9.40;99.90;;;;;;4976592;28;20101;-75
2023/12/29 02:53:05;;;;;;;4.82;2.60;;;9.50;99.90;;;;;;4975793;28;20110;-74
2023/12/29 02:55:30;;;;;;;4.65;2.90;;;9.50;99.90;;;;;;4976454;28;20031;-75
2023/12/29 02:57:56;;;;;;;4.25;2.58;;;9.50;99.90;;;;;;4959362;28;20043;-75
2023/12/29 03:00:21;;;;;;;5.05;2.47;;;9.50;99.90;;;;;;4959099;28;20388;-75
2023/12/29 03:02:47;;;;;;;3.42;2.30;;;9.40;99.90;;;;;;4975935;28;20027;-75
2023/12/29 03:05:13;;;;;;;3.42;2.60;;;9.40;99.90;;;;;;4976787;28;20477;-75
2023/12/29 03:07:40;;;;;;;4.63;2.70;;;9.40;99.90;;;;;;4975114;28;20042;-75
2023/12/29 03:10:07;;;;;;;4.53;2.90;;;9.40;99.90;;;;;;4976748;28;20097;-75
2023/12/29 03:12:32;;;;;;;4.93;2.70;;;9.40;99.90;;;;;;4975991;28;20490;-75
2023/12/29 03:14:58;;;;;;;3.40;2.45;;;9.40;99.90;;;;;;4976631;28;20034;-74
2023/12/29 03:17:23;;;;;;;3.03;2.40;;;9.40;99.90;;;;;;4958679;28;20518;-75
2023/12/29 03:19:49;;;;;;;4.53;2.50;;;9.40;99.90;;;;;;4975246;28;20487;-75
2023/12/29 03:22:14;;;;;;;4.07;2.60;;;9.50;99.90;;;;;;4975309;28;20077;-75
2023/12/29 03:24:42;;;;;;;5.15;2.53;;;9.50;99.90;;;;;;4975680;28;20049;-75
2023/12/29 03:27:08;;;;;;;5.15;2.42;;;9.50;99.90;;;;;;4976059;28;20418;-75
2023/12/29 03:29:33;;;;;;;4.32;2.33;;;9.50;99.90;;;;;;4974562;28;20516;-75
2023/12/29 03:31:59;;;;;;;3.40;2.17;;;9.50;99.90;;;;;;4958954;28;20066;-74
2023/12/29 03:34:24;;;;;;;4.70;2.58;;;9.50;99.90;;;;;;4975799;28;20031;-75
2023/12/29 03:36:50;;;;;;;3.45;2.28;;;9.50;99.90;;;;;;4975737;28;20142;-74
2023/12/29 03:39:16;;;;;;;2.67;1.73;;;9.60;99.90;;;;;;4958756;28;20038;-74
2023/12/29 03:41:42;;;;;;;2.72;1.83;;;9.50;99.90;;;;;;4958318;28;20058;-74
2023/12/29 03:44:07;;;;;;;3.17;2.10;;;9.50;99.90;;;;;;4976034;28;20019;-75
2023/12/29 03:46:33;;;;;;;2.70;2.10;;;9.60;99.90;;;;;;4974298;28;20088;-75
2023/12/29 03:48:58;;;;;;;4.63;2.17;;;9.60;99.90;;;;;;4958770;28;20122;-75
2023/12/29 03:51:24;;;;;;;4.40;2.60;;;9.60;99.90;;;;;;4975379;28;20117;-75
2023/12/29 03:53:50;;;;;;;2.95;2.08;;;9.60;99.90;;;;;;4976148;28;20507;-75
2023/12/29 03:56:17;;;;;;;3.70;2.47;;;9.60;99.90;;;;;;4958167;28;20038;-75
2023/12/29 03:58:43;;;;;;;4.70;2.80;;;9.60;99.90;;;;;;4974895;28;20369;-75
2023/12/29 04:01:14;;;;;;;4.15;2.50;;;9.60;99.90;;;;;;4958402;28;20067;-75
2023/12/29 04:03:40;;;;;;;4.60;2.85;;;9.60;99.90;;;;;;4975262;28;20037;-75
2023/12/29 04:06:06;;;;;;;3.92;2.50;;;9.60;99.90;;;;;;4958440;28;20034;-75
2023/12/29 04:08:33;;;;;;;4.10;2.70;;;9.60;99.90;;;;;;4957822;28;20033;-74
2023/12/29 04:10:58;;;;;;;5.25;2.65;;;9.60;99.90;;;;;;4975533;28;20086;-75
2023/12/29 04:13:24;;;;;;;4.72;3.03;;;9.60;99.90;;;;;;4975055;28;20407;-75
2023/12/29 04:15:49;;;;;;;4.35;2.75;;;9.60;99.90;;;;;;4974087;28;20062;-75
2023/12/29 04:18:15;;;;;;;4.20;2.67;;;9.60;99.90;;;;;;4975406;28;20089;-75
2023/12/29 04:20:41;;;;;;;4.30;2.67;;;9.60;99.90;;;;;;4957579;28;20484;-75
2023/12/29 04:23:10;;;;;;;4.28;2.53;;;9.60;99.90;;;;;;4957932;28;20456;-74
2023/12/29 04:25:36;;;;;;;4.15;3.05;;;9.60;99.90;;;;;;4957551;28;20046;-75
2023/12/29 04:28:01;;;;;;;4.82;3.03;;;9.60;99.90;;;;;;4957597;28;20484;-74
2023/12/29 04:30:27;;;;;;;7.15;3.15;;;9.60;99.90;;;;;;4973514;28;20035;-75
2023/12/29 04:32:52;;;;;;;4.95;2.50;;;9.60;99.90;;;;;;4974841;28;20097;-75
2023/12/29 04:35:18;;;;;;;3.08;2.33;;;9.60;99.90;;;;;;4975165;28;20023;-74
2023/12/29 04:37:45;;;;;;;4.00;2.50;;;9.70;99.90;;;;;;4973151;28;20535;-75
2023/12/29 04:40:11;;;;;;;4.35;2.08;;;9.60;99.90;;;;;;4974702;28;20414;-74
2023/12/29 04:42:37;;;;;;;5.22;2.70;;;9.70;99.90;;;;;;4957189;28;20031;-74
2023/12/29 04:45:04;;;;;;;3.28;2.15;;;9.70;99.90;;;;;;4974698;28;20531;-74
2023/12/29 04:47:29;;;;;;;3.83;2.28;;;9.70;99.90;;;;;;4974157;28;20041;-75
2023/12/29 04:49:55;;;;;;;5.13;2.17;;;9.70;99.90;;;;;;4957493;28;20381;-75
2023/12/29 04:52:21;;;;;;;4.88;2.22;;;9.70;99.90;;;;;;4957407;28;20119;-74
2023/12/29 04:54:46;;;;;;;5.90;2.50;;;9.70;99.90;;;;;;4956946;28;20034;-75
2023/12/29 04:57:12;;;;;;;4.18;2.50;;;9.70;99.90;;;;;;4974284;28;20035;-75
2023/12/29 04:59:38;;;;;;;5.28;2.70;;;9.70;99.90;;;;;;4972901;28;20039;-75
2023/12/29 05:02:03;;;;;;;4.20;2.60;;;9.70;99.90;;;;;;4957393;28;20035;-74
2023/12/29 05:04:29;;;;;;;5.05;2.67;;;9.60;99.90;;;;;;4974130;28;20085;-75
2023/12/29 05:06:54;;;;;;;5.38;2.88;;;9.60;99.90;;;;;;4973635;28;20030;-74
2023/12/29 05:09:20;;;;;;;5.13;2.55;;;9.60;99.90;;;;;;4957169;28;20073;-75
2023/12/29 05:11:46;;;;;;;4.40;2.83;;;9.60;99.90;;;;;;4956691;28;20073;-75
2023/12/29 05:14:11;;;;;;;6.43;3.15;;;9.60;99.90;;;;;;4957121;28;20027;-74
2023/12/29 05:16:37;;;;;;;4.25;2.97;;;9.50;99.90;;;;;;4956607;28;20031;-75
2023/12/29 05:19:02;;;;;;;5.10;2.80;;;9.50;99.90;;;;;;4974419;28;20204;-74
2023/12/29 05:21:28;;;;;;;6.78;2.63;;;9.50;99.90;;;;;;4956510;28;20532;-75
2023/12/29 05:23:54;;;;;;;3.45;2.50;;;9.50;99.90;;;;;;4973170;28;20035;-75
2023/12/29 05:26:19;;;;;;;3.90;2.60;;;9.50;99.90;;;;;;4956506;28;20026;-75
2023/12/29 05:28:45;;;;;;;4.32;2.67;;;9.50;99.90;;;;;;4973845;28;20031;-75
2023/12/29 05:31:10;;;;;;;5.75;2.58;;;9.50;99.90;;;;;;4974218;28;20058;-74
2023/12/29 05:33:36;;;;;;;4.65;3.08;;;9.40;99.90;;;;;;4972514;28;20117;-75
2023/12/29 05:36:10;;;;;;;7.15;2.83;;;9.40;99.90;;;;;;4974119;28;20456;-75
2023/12/29 05:38:37;;;;;;;3.10;2.55;;;9.40;99.90;;;;;;4972577;28;20074;-74
2023/12/29 05:41:04;;;;;;;7.72;2.90;;;9.40;99.90;;;;;;4956831;28;20046;-75
2023/12/29 05:43:31;;;;;;;5.68;3.10;;;9.40;99.90;;;;;;4973580;28;20058;-75
2023/12/29 05:45:57;;;;;;;3.70;2.70;;;9.30;99.90;;;;;;4972667;28;20074;-75
2023/12/29 05:48:23;;;;;;;4.47;2.70;;;9.30;99.90;;;;;;4972992;28;20078;-75
2023/12/29 05:50:52;;;;;;;4.57;2.80;;;9.30;99.90;;;;;;4973549;28;20114;-75
2023/12/29 05:53:18;;;;;;;5.07;2.90;;;9.20;99.90;;;;;;4956582;28;20031;-75
2023/12/29 05:55:45;;;;;;;3.53;2.47;;;9.20;99.90;;;;;;4973230;28;20090;-74
2023/12/29 05:58:11;;;;;;;4.03;2.70;;;9.20;99.90;;;;;;4972464;28;20035;-74
2023/12/29 06:00:37;;;;;;;4.10;2.88;;;9.10;99.90;;;;;;4973599;28;20530;-74
2023/12/29 06:03:06;;;;;;;4.50;2.72;;;9.10;99.90;;;;;;4973822;28;20035;-74
2023/12/29 06:05:32;;;;;;;6.13;2.90;;;9.10;99.90;;;;;;4956163;28;20118;-75
2023/12/29 06:07:58;;;;;;;5.38;2.97;;;9.10;99.90;;;;;;4956587;28;20030;-75
2023/12/29 06:10:23;;;;;;;6.82;3.22;;;9.10;99.90;;;;;;4956550;28;20122;-74
2023/12/29 06:12:49;;;;;;;3.58;2.50;;;9.00;99.90;;;;;;4956209;28;20030;-74
2023/12/29 06:15:15;;;;;;;4.10;2.60;;;9.00;99.90;;;;;;4973869;28;20050;-75
2023/12/29 06:17:41;;;;;;;4.32;2.60;;;9.00;99.90;;;;;;4955947;28;20031;-74
2023/12/29 06:20:09;;;;;;;3.30;2.28;;;9.00;99.90;;;;;;4956224;28;20121;-74
2023/12/29 06:22:42;;;;;;;4.50;2.60;;;9.00;99.90;;;;;;4956077;28;20034;-75
2023/12/29 06:25:11;;;;;;;5.65;2.75;;;9.00;99.90;;;;;;4956438;28;20062;-74
2023/12/29 06:27:38;;;;;;;4.25;2.38;;;9.10;99.90;;;;;;4955917;28;20391;-74
2023/12/29 06:30:06;;;;;;;3.60;2.35;;;9.10;99.90;;;;;;4973872;28;20054;-75
2023/12/29 06:32:32;;;;;;;3.65;2.33;;;9.10;99.90;;;;;;4956046;28;20062;-77
2023/12/29 06:34:57;;;;;;;3.78;2.58;;;9.10;99.90;;;;;;4956450;28;20030;-75
2023/12/29 06:37:23;;;;;;;5.40;2.88;;;9.10;99.90;;;;;;4972270;28;20058;-74
2023/12/29 06:39:48;;;;;;;3.80;2.60;;;9.10;99.90;;;;;;4959542;28;20085;-75
2023/12/29 06:42:14;;;;;;;5.70;1.92;;;9.10;99.90;;;;;;4977297;28;20027;-74
2023/12/29 06:44:40;;;;;;;3.85;2.50;;;9.10;99.90;;;;;;4975588;28;20039;-75
2023/12/29 06:47:06;;;;;;;6.35;2.60;;;9.10;99.90;;;;;;4959870;28;20034;-75
2023/12/29 06:49:34;;;;;;;4.18;2.22;;;9.20;99.90;;;;;;4959376;28;20034;-78
2023/12/29 06:51:59;;;;;;;3.45;2.50;;;9.20;99.90;;;;;;4975964;28;20451;-74
2023/12/29 06:54:25;;;;;;;5.35;2.50;;;9.20;99.90;;;;;;4959882;28;20117;-76
2023/12/29 06:56:51;;;;;;;3.95;2.30;;;9.20;99.90;;;;;;4975380;28;20038;-76
2023/12/29 06:59:18;;;;;;;4.03;2.10;;;9.10;99.90;;;;;;4975791;28;20129;-75
2023/12/29 07:01:44;;;;;;;5.75;2.38;;;9.20;99.90;;;;;;4976461;28;20487;-76
2023/12/29 07:04:10;;;;;;;3.70;2.33;;;9.20;99.90;;;;;;4959819;28;20031;-75
2023/12/29 07:06:36;;;;;;;4.88;1.92;;;9.10;99.90;;;;;;4958751;28;20046;-76
2023/12/29 07:09:02;;;;;;;5.10;2.50;;;9.10;99.90;;;;;;4976648;28;20035;-75
2023/12/29 07:11:29;;;;;;;6.60;2.45;;;9.20;99.90;;;;;;4959565;28;20035;-75
2023/12/29 07:13:54;;;;;;;6.30;2.60;;;9.20;99.90;;;;;;4958904;28;20027;-75
2023/12/29 07:16:20;;;;;;;3.72;2.58;;;9.20;99.90;;;;;;4959228;28;20038;-75
2023/12/29 07:18:46;;;;;;;5.82;2.65;;;9.20;99.90;;;;;;4958956;28;20070;-76
2023/12/29 07:21:12;;;;;;;4.38;2.42;;;9.30;99.90;;;;;;4976643;28;20486;-75
2023/12/29 07:23:39;;;;;;;5.60;2.35;;;9.30;99.90;;;;;;4974856;28;20086;-76
2023/12/29 07:26:04;;;;;;;4.13;2.72;;;9.30;99.90;;;;;;4959298;28;20117;-76
2023/12/29 07:28:32;;;;;;;4.60;2.63;;;9.30;99.90;;;;;;4959122;28;20069;-74
2023/12/29 07:30:58;;;;;;;4.20;2.78;;;9.30;99.90;;;;;;4975057;28;20031;-75
2023/12/29 07:33:24;;;;;;;5.63;2.40;;;9.30;99.90;;;;;;4959265;28;20034;-76
2023/12/29 07:35:50;;;;;;;4.85;2.65;;;9.30;99.90;;;;;;4976143;28;20031;-75
2023/12/29 07:38:15;;;;;;;4.75;2.65;;;9.30;99.90;;;;;;4976463;28;20065;-75
2023/12/29 07:40:41;;;;;;;4.95;2.65;;;9.30;99.90;;;;;;4958636;28;20027;-75
2023/12/29 07:43:07;;;;;;;5.72;2.58;;;9.40;99.90;;;;;;4976178;28;20018;-76
2023/12/29 07:45:33;;;;;;;3.92;2.55;;;9.40;99.90;;;;;;4975830;28;20491;-76
2023/12/29 07:47:58;;;;;;;3.30;2.20;;;9.40;99.90;;;;;;4958503;28;20031;-75
2023/12/29 07:50:24;;;;;;;2.83;2.30;;;9.40;99.90;;;;;;4975715;28;20027;-75
2023/12/29 07:52:50;;;;;;;3.58;2.28;;;9.40;99.90;;;;;;4975646;28;20030;-76
2023/12/29 07:55:18;;;;;;;4.05;2.90;;;9.40;99.90;;;;;;4975948;28;20419;-76
2023/12/29 07:57:44;;;;;;;4.35;2.40;;;9.50;99.90;;;;;;4957842;28;20129;-76
2023/12/29 08:00:10;;;;;;;3.33;2.55;;;9.50;99.90;;;;;;4976001;28;20110;-76
2023/12/29 08:02:36;;;;;;;4.65;2.42;;;9.50;99.90;;;;;;4975645;28;20026;-92
2023/12/29 08:05:02;;;;;;;5.22;2.58;;;9.50;99.90;;;;;;4958483;28;20034;-75
2023/12/29 08:07:28;;;;;;;3.90;2.33;;;9.50;99.90;;;;;;4975545;28;20400;-75
2023/12/29 08:09:53;;;;;;;4.00;2.60;;;9.50;99.90;;;;;;4958023;28;20471;-75
2023/12/29 08:12:19;;;;;;;5.05;2.70;;;9.50;99.90;;;;;;4975642;28;20031;-75
2023/12/29 08:14:44;;;;;;;5.13;2.70;;;9.50;99.90;;;;;;4957957;28;20456;-75
2023/12/29 08:17:11;;;;;;;5.05;2.60;;;9.40;99.90;;;;;;4958286;28;20035;-75
2023/12/29 08:19:37;;;;;;;4.93;2.50;;;9.40;99.90;;;;;;4958119;28;20054;-89
2023/12/29 08:22:02;;;;;;;5.15;2.65;;;9.40;99.90;;;;;;4975156;28;20480;-75
2023/12/29 08:24:28;;;;;;;4.57;2.55;;;9.40;99.90;;;;;;4958043;28;20118;-75
2023/12/29 08:26:54;;;;;;;4.55;2.33;;;9.50;99.90;;;;;;4957563;28;20456;-75
2023/12/29 08:29:19;;;;;;;4.03;2.70;;;9.50;99.90;;;;;;4957782;28;20035;-75
2023/12/29 08:31:45;;;;;;;5.93;2.78;;;9.50;99.90;;;;;;4973687;28;20030;-75
2023/12/29 08:34:12;;;;;;;6.32;2.50;;;9.50;99.90;;;;;;4957785;28;20117;-75
2023/12/29 08:36:37;;;;;;;3.38;2.50;;;9.50;99.90;;;;;;4974751;28;20399;-77
2023/12/29 08:39:03;;;;;;;5.30;2.95;;;9.50;99.90;;;;;;4975116;28;20027;-75
2023/12/29 08:41:29;;;;;;;4.82;2.80;;;9.60;99.90;;;;;;4957804;28;20026;-75
2023/12/29 08:43:54;;;;;;;6.60;2.97;;;9.60;99.90;;;;;;4974574;28;20022;-75
2023/12/29 08:46:22;;;;;;;5.13;3.30;;;9.60;99.90;;;;;;4973408;28;20452;-75
2023/12/29 08:48:48;;;;;;;5.22;3.25;;;9.60;99.90;;;;;;4973317;28;20030;-75
2023/12/29 08:51:13;;;;;;;5.65;3.33;;;9.70;99.90;;;;;;4957547;28;20535;-75
2023/12/29 08:53:39;;;;;;;5.10;2.75;;;9.70;99.90;;;;;;4974719;28;20039;-91
2023/12/29 08:56:05;;;;;;;3.95;2.70;;;9.70;99.90;;;;;;4974809;28;20026;-75
2023/12/29 08:58:31;;;;;;;4.72;2.60;;;9.70;99.90;;;;;;4957326;28;20440;-76
2023/12/29 09:00:57;;;;;;;4.90;2.75;;;9.80;99.90;;;;;;4972532;28;20085;-76
2023/12/29 09:03:22;;;;;;;4.32;2.40;;;9.80;99.90;;;;;;4957674;28;20027;-76
2023/12/29 09:05:48;;;;;;;4.90;2.25;;;9.80;99.90;;;;;;4974192;28;20453;-76
2023/12/29 09:08:14;;;;;;;3.35;2.30;;;9.90;99.90;;;;;;4974403;28;20121;-75
2023/12/29 09:10:39;;;;;;;3.72;1.98;;;9.90;99.90;;;;;;4957268;28;20027;-76
2023/12/29 09:13:05;;;;;;;3.22;2.00;;;10.00;99.90;;;;;;4957130;28;20034;-76
2023/12/29 09:15:32;;;;;;;5.22;2.58;;;10.00;99.90;;;;;;4974260;28;20495;-75
2023/12/29 09:17:57;;;;;;;5.28;2.70;;;10.10;99.90;;;;;;4956435;28;20145;-76
2023/12/29 09:20:23;;;;;;;3.95;2.40;;;10.10;99.90;;;;;;4974492;28;20019;-76
2023/12/29 09:22:48;;;;;;;5.10;2.28;;;10.20;99.90;;;;;;4956428;28;20174;-75
2023/12/29 09:25:14;;;;;;;4.57;2.00;;;10.20;99.90;;;;;;4974290;28;20384;-75
2023/12/29 09:27:40;;;;;;;3.90;2.72;;;10.20;99.90;;;;;;4974362;28;20046;-75
2023/12/29 09:30:06;;;;;;;5.15;2.40;;;10.30;99.90;;;;;;4972555;28;20027;-76
2023/12/29 09:32:31;;;;;;;2.95;2.00;;;10.30;99.90;;;;;;4956618;28;20023;-76
2023/12/29 09:34:57;;;;;;;4.80;1.85;;;10.30;99.90;;;;;;4956435;28;20094;-76
2023/12/29 09:37:23;;;;;;;3.97;2.15;;;10.30;99.90;;;;;;4974221;28;20082;-75
2023/12/29 09:39:48;;;;;;;6.40;2.40;;;10.30;99.90;;;;;;4973933;28;20027;-76
2023/12/29 09:42:21;;;;;;;2.45;2.10;;;10.30;99.90;;;;;;4974166;28;20086;-75
2023/12/29 09:44:50;;;;;;;3.13;2.13;;;10.40;99.90;;;;;;4973855;28;20082;-76
2023/12/29 09:47:23;;;;;;;2.58;1.73;;;10.50;99.90;;;;;;4972778;28;20027;-76
2023/12/29 09:49:49;;;;;;;2.67;1.70;;;10.50;99.90;;;;;;4956124;28;20027;-76
2023/12/29 09:52:16;;;;;;;3.28;1.88;;;10.60;99.90;;;;;;4974141;28;20443;-76
2023/12/29 09:54:43;;;;;;;3.17;1.77;;;10.70;99.90;;;;;;4956814;28;20093;-76
2023/12/29 09:57:09;;;;;;;2.72;1.42;;;10.80;99.90;;;;;;4972610;28;20498;-76
2023/12/29 09:59:38;;;;;;;2.17;1.30;;;10.80;99.90;;;;;;4973736;28;20031;-77
2023/12/29 10:02:15;;;;;;;1.60;1.35;;;10.80;99.90;;;;;;4973622;28;20042;-76
2023/12/29 10:04:40;;;;;;;2.42;1.83;;;10.80;99.90;;;;;;4956716;28;20038;-74
2023/12/29 10:07:07;;;;;;;1.77;1.15;;;10.90;99.90;;;;;;4956091;28;20034;-75
2023/12/29 10:09:37;;;;;;;1.98;1.40;;;10.90;99.90;;;;;;4956439;28;20031;-75
2023/12/29 10:12:03;;;;;;;3.03;1.13;;;10.90;99.90;;;;;;4973561;28;20031;-74
2023/12/29 10:14:48;;;;;;;2.35;1.63;;;10.90;99.90;;;;;;4976692;28;20122;-75
2023/12/29 10:17:28;;;;;;;2.25;1.40;;;11.00;99.90;;;;;;4960464;28;20031;-75
2023/12/29 10:20:14;;;;;;;1.67;1.35;;;11.00;99.90;;;;;;4976114;28;20034;-75
2023/12/29 10:22:54;;;;;;;3.40;1.20;;;11.00;99.90;;;;;;4977288;28;20035;-74
2023/12/29 10:25:20;;;;;;;1.65;1.10;;;11.10;99.90;;;;;;4960351;28;20082;-75
2023/12/29 10:27:46;;;;;;;4.15;1.23;;;11.10;99.90;;;;;;4977272;28;20102;-77
2023/12/29 10:30:12;;;;;;;2.22;0.90;;;11.10;99.90;;;;;;4960209;28;20121;-75
2023/12/29 10:32:38;;;;;;;0.98;0.80;;;11.20;99.90;;;;;;4960254;28;20023;-75
2023/12/29 10:35:12;;;;;;;0.70;0.70;;;11.20;99.90;;;;;;4977160;28;20050;-75
2023/12/29 10:37:38;;;;;;;0.73;0.70;;;11.20;99.90;;;;;;4977478;28;20496;-75
2023/12/29 10:40:05;;;;;;;1.45;1.05;;;11.20;99.90;;;;;;4959730;28;20035;-75
2023/12/29 10:42:31;;;;;;;1.20;1.00;;;11.20;99.90;;;;;;4960353;28;20030;-75
2023/12/29 10:45:08;;;;;;;1.55;1.00;;;11.20;99.90;;;;;;4976940;28;20031;-76
2023/12/29 10:47:38;;;;;;;1.38;1.10;;;11.20;99.90;;;;;;4976112;28;20026;-75
2023/12/29 10:50:04;;;;;;;1.33;1.00;;;11.30;99.90;;;;;;4959470;28;20026;-76
2023/12/29 10:52:30;;;;;;;1.33;0.90;;;11.30;99.90;;;;;;4959955;28;20113;-75
2023/12/29 10:55:10;;;;;;;2.88;1.00;;;11.40;99.90;;;;;;4976729;28;20027;-75
2023/12/29 10:57:37;;;;;;;1.67;1.00;;;11.40;99.90;;;;;;4959802;28;20035;-75
2023/12/29 11:00:07;;;;;;;2.13;1.10;;;11.50;99.90;;;;;;4959259;28;20118;-75
2023/12/29 11:02:33;;;;;;;1.77;1.30;;;11.60;99.90;;;;;;4976708;28;20030;-75
2023/12/29 11:05:04;;;;;;;1.13;0.90;;;11.70;99.90;;;;;;4976699;28;20027;-76
2023/12/29 11:07:37;;;;;;;2.03;1.02;;;11.80;99.90;;;;;;4959667;28;20376;-76
2023/12/29 11:10:09;;;;;;;1.35;1.00;;;11.90;99.90;;;;;;4975349;28;20114;-76
2023/12/29 11:12:36;;;;;;;1.20;0.93;;;12.00;99.90;;;;;;4977303;28;20034;-76
2023/12/29 11:15:06;;;;;;;1.13;0.93;;;12.00;99.90;;;;;;4959369;28;20358;-76
2023/12/29 11:17:34;;;;;;;2.45;1.10;;;12.00;99.90;;;;;;4959244;28;20030;-76
2023/12/29 11:20:01;;;;;;;1.83;1.00;;;12.10;99.90;;;;;;4975973;28;20037;-76
2023/12/29 11:22:31;;;;;;;2.88;1.10;;;12.10;99.90;;;;;;4959461;28;20098;-76
2023/12/29 11:24:59;;;;;;;1.45;1.20;;;12.10;99.90;;;;;;4975718;28;20035;-76
2023/12/29 11:27:31;;;;;;;1.17;1.00;;;12.30;99.90;;;;;;4959230;28;20490;-77
2023/12/29 11:30:01;;;;;;;2.10;0.90;;;12.30;99.90;;;;;;4959449;28;20027;-74
2023/12/29 11:32:35;;;;;;;1.77;1.10;;;12.40;99.90;;;;;;4976817;28;20062;-76
2023/12/29 11:35:13;;;;;;;2.78;1.83;;;12.50;99.90;;;;;;4976094;28;20101;-74
2023/12/29 11:38:08;;;;;;;3.17;0.85;;;12.60;99.90;;;;;;4976305;28;20548;-75
2023/12/29 11:40:49;;;;;;;1.80;1.00;;;12.50;99.90;;;;;;4959070;28;20031;-75
2023/12/29 11:43:17;;;;;;;1.17;0.80;;;12.40;99.90;;;;;;4976375;28;20027;-75
2023/12/29 11:45:44;;;;;;;1.33;0.73;;;12.40;99.90;;;;;;4976314;28;20093;-75
2023/12/29 11:48:11;;;;;;;1.98;1.02;;;12.40;99.90;;;;;;4975642;28;20388;-75
2023/12/29 11:50:41;;;;;;;2.03;0.90;;;12.40;99.90;;;;;;4958788;28;20030;-75
2023/12/29 11:53:08;;;;;;;1.95;0.60;;;12.30;99.90;;;;;;4974346;28;20038;-75
2023/12/29 11:55:39;;;;;;;1.60;0.88;;;12.40;99.90;;;;;;4958683;28;20082;-75
2023/12/29 11:58:23;;;;;;;3.08;0.77;;;12.30;99.90;;;;;;4957904;28;20058;-76
2023/12/29 12:00:49;;;;;;;1.30;0.90;;;12.30;99.90;;;;;;4974501;28;20122;-74
2023/12/29 12:03:27;;;;;;;1.23;0.68;;;12.40;99.90;;;;;;4975380;28;20476;-75
2023/12/29 12:05:54;;;;;;;0.85;0.85;;;12.30;99.90;;;;;;4975380;28;20022;-75
2023/12/29 12:08:37;;;;;;;1.35;1.00;;;12.30;99.90;;;;;;4958568;28;20061;-75
2023/12/29 12:11:35;;;;;;;1.27;0.70;;;12.30;99.90;;;;;;4958019;28;20035;-75
2023/12/29 12:14:01;;;;;;;1.90;0.95;;;12.40;99.90;;;;;;4975252;28;20019;-76
2023/12/29 12:16:44;;;;;;;1.10;0.80;;;12.40;99.90;;;;;;4974504;28;20035;-75
2023/12/29 12:19:10;;;;;;;1.08;0.93;;;12.40;99.90;;;;;;4957755;28;20038;-75
2023/12/29 12:21:37;;;;;;;2.80;0.80;;;12.40;99.90;;;;;;4975448;28;20101;-75
2023/12/29 12:24:04;;;;;;;1.00;0.80;;;12.50;99.90;;;;;;4974991;28;20038;-75
2023/12/29 12:26:37;;;;;;;2.15;0.80;;;12.60;99.90;;;;;;4958024;28;20423;-75
2023/12/29 12:29:04;;;;;;;1.40;0.98;;;12.60;99.90;;;;;;4975120;28;20031;-75
2023/12/29 12:31:30;;;;;;;3.03;1.02;;;12.50;99.90;;;;;;4957668;28;20035;-75
2023/12/29 12:34:06;;;;;;;0.73;0.70;;;12.50;99.90;;;;;;4957672;28;20165;-75
2023/12/29 12:36:31;;;;;;;1.20;0.80;;;12.40;99.90;;;;;;4956390;28;20059;-75
2023/12/29 12:38:57;;;;;;;1.35;0.98;;;12.40;99.90;;;;;;4957114;28;20038;-75
2023/12/29 12:41:27;;;;;;;1.92;0.85;;;12.30;99.90;;;;;;4957812;28;20428;-75
2023/12/29 12:44:05;;;;;;;1.08;0.85;;;12.40;99.90;;;;;;4974686;28;20109;-82
2023/12/29 12:46:35;;;;;;;2.90;0.95;;;12.50;99.90;;;;;;4957865;28;20049;-75
2023/12/29 12:49:02;;;;;;;1.02;0.70;;;12.60;99.90;;;;;;4956957;28;20031;-76
2023/12/29 12:51:28;;;;;;;2.13;1.30;;;12.80;99.90;;;;;;4957560;28;20469;-75
2023/12/29 12:53:54;;;;;;;2.55;1.20;;;12.90;99.90;;;;;;4974531;28;20093;-77
2023/12/29 12:56:20;;;;;;;1.08;0.88;;;13.00;99.90;;;;;;4973586;28;20388;-75